Time;durP1;ratioP1;P1;durP2;ratioP2;P2;SDS_P1;SDS_P2;PMS_P1;PMS_P2;Temp;Humidity;BMP_temperature;BMP_pressure;BME280_temperature;BME280_humidity;BME280_pressure;Samples;Min_cycle;Max_cycle;Signal;HPM_P1;HPM_P2
2023/04/09 00:01:54;;;;;;;;;;;;;;;12.44;53.29;101437.34;4973191;28;6982;-75
2023/04/09 00:04:23;;;;;;;;;;;;;;;12.36;53.08;101442.94;4966148;28;6948;-72
2023/04/09 00:06:49;;;;;;;;;;;;;;;12.28;53.00;101451.00;4941586;28;6991;-72
2023/04/09 00:09:15;;;;;;;;;;;;;;;12.19;53.20;101443.66;4965706;28;7101;-73
2023/04/09 00:11:40;;;;;;;;;;;;;;;12.12;53.26;101449.22;4966125;28;6858;-72
2023/04/09 00:14:06;;;;;;;;;;;;;;;12.03;53.26;101440.19;4966016;28;6776;-74
2023/04/09 00:16:32;;;;;;;;;;;;;;;11.97;53.43;101441.47;4956567;28;7143;-71
2023/04/09 00:18:57;;;;;;;;;;;;;;;11.91;53.97;101442.00;4966772;28;6768;-72
2023/04/09 00:21:23;;;;;;;;;;;;;;;11.87;53.88;101442.59;4981195;28;6976;-71
2023/04/09 00:23:49;;;;;;;;;;;;;;;11.81;54.41;101438.88;4965130;28;7037;-75
2023/04/09 00:26:14;;;;;;;;;;;;;;;11.78;54.29;101441.28;4964904;28;7258;-73
2023/04/09 00:28:40;;;;;;;;;;;;;;;11.76;54.05;101440.28;4981334;28;6789;-73
2023/04/09 00:31:06;;;;;;;;;;;;;;;11.76;54.59;101437.72;4966685;28;7472;-72
2023/04/09 00:33:31;;;;;;;;;;;;;;;11.77;54.77;101439.47;4947084;28;7038;-72
2023/04/09 00:35:57;;;;;;;;;;;;;;;11.77;54.66;101429.22;4965789;28;6928;-73
2023/04/09 00:38:22;;;;;;;;;;;;;;;11.81;54.75;101428.63;4953681;28;6940;-72
2023/04/09 00:40:50;;;;;;;;;;;;;;;11.87;55.46;101435.78;4964739;28;7517;-72
2023/04/09 00:43:18;;;;;;;;;;;;;;;11.92;55.31;101428.34;4967256;28;6780;-71
2023/04/09 00:45:44;;;;;;;;;;;;;;;11.97;54.90;101433.75;4965949;28;6962;-75
2023/04/09 00:48:12;;;;;;;;;;;;;;;11.95;55.46;101421.72;4965347;28;7326;-74
2023/04/09 00:50:38;;;;;;;;;;;;;;;11.95;55.26;101421.72;4982152;28;6780;-74
2023/04/09 00:53:04;;;;;;;;;;;;;;;11.93;55.09;101423.31;4965029;28;6760;-74
2023/04/09 00:55:31;;;;;;;;;;;;;;;11.92;55.25;101428.34;4980496;28;6776;-74
2023/04/09 00:57:57;;;;;;;;;;;;;;;11.90;55.09;101427.38;4968209;28;6816;-75
2023/04/09 01:00:23;;;;;;;;;;;;;;;11.86;54.95;101420.28;4981414;28;6914;-74
2023/04/09 01:02:51;;;;;;;;;;;;;;;11.82;55.34;101424.34;4963538;28;7122;-75
2023/04/09 01:05:18;;;;;;;;;;;;;;;11.76;54.79;101426.56;4985436;28;6815;-74
2023/04/09 01:08:30;;;;;;;;;;;;;;;11.69;54.99;101424.41;4969897;28;6844;-77
2023/04/09 01:11:20;;;;;;;;;;;;;;;11.58;55.29;101423.75;4970014;28;6869;-77
2023/04/09 01:14:19;;;;;;;;;;;;;;;11.47;55.17;101416.31;4985754;28;6844;-75
2023/04/09 01:16:55;;;;;;;;;;;;;;;11.42;55.02;101412.59;4969234;28;6995;-75
2023/04/09 01:19:35;;;;;;;;;;;;;;;11.38;55.25;101405.47;4970835;28;6812;-74
2023/04/09 01:22:08;;;;;;;;;;;;;;;11.35;55.27;101410.44;4986272;28;6991;-74
2023/04/09 01:25:18;;;;;;;;;;;;;;;11.29;55.41;101416.06;4968071;28;6804;-73
2023/04/09 01:28:07;;;;;;;;;;;;;;;11.24;55.45;101409.75;4961174;28;7239;-75
2023/04/09 01:30:33;;;;;;;;;;;;;;;11.18;55.61;101415.41;4960580;28;7190;-74
2023/04/09 01:33:01;;;;;;;;;;;;;;;11.13;55.82;101409.13;4969410;28;6953;-74
2023/04/09 01:35:27;;;;;;;;;;;;;;;11.10;55.78;101408.91;4960936;28;7008;-76
2023/04/09 01:37:56;;;;;;;;;;;;;;;11.07;55.87;101408.72;4969799;28;7210;-75
2023/04/09 01:40:21;;;;;;;;;;;;;;;11.03;56.09;101397.38;4984178;28;7221;-75
2023/04/09 01:42:49;;;;;;;;;;;;;;;11.01;56.09;101408.34;4969454;28;7292;-75
2023/04/09 01:45:16;;;;;;;;;;;;;;;11.00;56.54;101401.44;4958724;28;9310;-75
2023/04/09 01:47:43;;;;;;;;;;;;;;;10.98;56.42;101399.66;4984989;28;7015;-75
2023/04/09 01:50:09;;;;;;;;;;;;;;;10.98;56.47;101394.53;4968685;28;7252;-74
2023/04/09 01:52:35;;;;;;;;;;;;;;;10.97;56.40;101397.03;4968913;28;6788;-74
2023/04/09 01:55:01;;;;;;;;;;;;;;;10.96;56.52;101388.44;4982552;28;6784;-74
2023/04/09 01:57:26;;;;;;;;;;;;;;;10.96;57.03;101396.13;4975997;28;7117;-73
2023/04/09 01:59:54;;;;;;;;;;;;;;;10.95;56.79;101390.88;4968509;28;6864;-73
2023/04/09 02:02:47;;;;;;;;;;;;;;;10.94;57.30;101392.59;4967530;28;6979;-74
2023/04/09 02:05:19;;;;;;;;;;;;;;;10.91;57.06;101382.16;4944768;28;7162;-75
2023/04/09 02:07:49;;;;;;;;;;;;;;;10.90;57.43;101390.59;4960842;28;7108;-73
2023/04/09 02:10:16;;;;;;;;;;;;;;;10.90;57.34;101392.28;4967147;28;7004;-74
2023/04/09 02:12:49;;;;;;;;;;;;;;;10.89;57.66;101388.81;4960731;28;7259;-73
2023/04/09 02:15:16;;;;;;;;;;;;;;;10.89;57.21;101387.97;4976600;28;6784;-77
2023/04/09 02:17:43;;;;;;;;;;;;;;;10.87;57.32;101385.28;4982548;28;6971;-73
2023/04/09 02:20:10;;;;;;;;;;;;;;;10.87;57.48;101390.41;4975724;28;6792;-74
2023/04/09 02:22:35;;;;;;;;;;;;;;;10.86;57.89;101388.66;4969649;28;6788;-74
2023/04/09 02:25:01;;;;;;;;;;;;;;;10.84;57.60;101379.97;4951890;28;7191;-74
2023/04/09 02:27:27;;;;;;;;;;;;;;;10.85;57.83;101379.19;4984331;28;6764;-74
2023/04/09 02:29:52;;;;;;;;;;;;;;;10.84;58.14;101374.84;4968056;28;6867;-74
2023/04/09 02:32:18;;;;;;;;;;;;;;;10.84;58.06;101379.97;4982668;28;7006;-73
2023/04/09 02:34:44;;;;;;;;;;;;;;;10.81;57.88;101372.06;4965698;28;6840;-77
2023/04/09 02:37:10;;;;;;;;;;;;;;;10.80;58.36;101378.91;4984246;28;6800;-74
2023/04/09 02:39:35;;;;;;;;;;;;;;;10.79;58.49;101374.56;4967251;28;7278;-76
2023/04/09 02:42:01;;;;;;;;;;;;;;;10.80;58.41;101371.19;4966636;28;6990;-77
2023/04/09 02:44:27;;;;;;;;;;;;;;;10.80;58.93;101373.78;4966685;28;7189;-77
2023/04/09 02:46:52;;;;;;;;;;;;;;;10.80;58.36;101368.63;4942830;28;7024;-77
2023/04/09 02:49:18;;;;;;;;;;;;;;;10.82;58.37;101355.94;4967367;28;7169;-77
2023/04/09 02:51:44;;;;;;;;;;;;;;;10.83;58.40;101357.69;4967244;28;6991;-77
2023/04/09 02:54:09;;;;;;;;;;;;;;;10.86;58.69;101363.00;4965890;28;7242;-77
2023/04/09 02:56:35;;;;;;;;;;;;;;;10.85;58.45;101356.09;4982355;28;6772;-73
2023/04/09 02:59:00;;;;;;;;;;;;;;;10.88;58.71;101360.53;4968156;28;6840;-75
2023/04/09 03:01:26;;;;;;;;;;;;;;;10.88;58.36;101357.97;4967200;28;7320;-74
2023/04/09 03:03:52;;;;;;;;;;;;;;;10.90;58.76;101359.81;4984109;28;7283;-75
2023/04/09 03:06:17;;;;;;;;;;;;;;;10.89;58.73;101355.50;4961911;28;6952;-73
2023/04/09 03:08:43;;;;;;;;;;;;;;;10.91;58.25;101360.72;4959016;28;7242;-75
2023/04/09 03:11:09;;;;;;;;;;;;;;;10.89;58.64;101360.63;4981597;28;6780;-74
2023/04/09 03:13:34;;;;;;;;;;;;;;;10.90;58.58;101358.97;4984995;28;6767;-75
2023/04/09 03:16:00;;;;;;;;;;;;;;;10.89;57.85;101363.19;4982793;28;7217;-74
2023/04/09 03:18:25;;;;;;;;;;;;;;;10.88;58.48;101358.84;4958162;28;6958;-77
2023/04/09 03:20:51;;;;;;;;;;;;;;;10.89;58.50;101359.75;4984405;28;7555;-73
2023/04/09 03:23:17;;;;;;;;;;;;;;;10.87;58.39;101359.63;4966844;28;6844;-73
2023/04/09 03:25:42;;;;;;;;;;;;;;;10.82;58.42;101349.09;4967213;28;7005;-72
2023/04/09 03:28:08;;;;;;;;;;;;;;;10.80;58.50;101347.22;4982617;28;6907;-74
2023/04/09 03:30:34;;;;;;;;;;;;;;;10.76;58.09;101347.84;4963543;28;7255;-72
2023/04/09 03:32:59;;;;;;;;;;;;;;;10.71;58.22;101344.97;4982294;28;6823;-73
2023/04/09 03:35:25;;;;;;;;;;;;;;;10.67;58.05;101351.59;4967064;28;6772;-73
2023/04/09 03:37:51;;;;;;;;;;;;;;;10.63;57.78;101336.81;4959366;28;8736;-74
2023/04/09 03:40:16;;;;;;;;;;;;;;;10.59;58.07;101346.78;4965488;28;6768;-75
2023/04/09 03:42:43;;;;;;;;;;;;;;;10.55;58.16;101344.00;4966872;28;6788;-72
2023/04/09 03:45:09;;;;;;;;;;;;;;;10.54;58.01;101343.94;4967956;28;6780;-74
2023/04/09 03:47:35;;;;;;;;;;;;;;;10.53;57.94;101350.72;4966412;28;6872;-71
2023/04/09 03:50:01;;;;;;;;;;;;;;;10.53;58.35;101345.59;4966330;28;7247;-72
2023/04/09 03:52:26;;;;;;;;;;;;;;;10.55;58.55;101345.69;4981027;28;6792;-74
2023/04/09 03:54:52;;;;;;;;;;;;;;;10.59;58.03;101341.66;4963738;28;6776;-72
2023/04/09 03:57:18;;;;;;;;;;;;;;;10.63;58.52;101339.38;4981061;28;6804;-73
2023/04/09 03:59:44;;;;;;;;;;;;;;;10.67;58.79;101343.91;4958752;28;7428;-72
2023/04/09 04:02:09;;;;;;;;;;;;;;;10.72;58.47;101339.06;4964950;28;6783;-72
2023/04/09 04:04:35;;;;;;;;;;;;;;;10.76;58.56;101350.41;4981528;28;6772;-71
2023/04/09 04:07:02;;;;;;;;;;;;;;;10.79;58.44;101348.03;4981088;28;6807;-73
2023/04/09 04:09:28;;;;;;;;;;;;;;;10.82;58.51;101343.09;4955715;28;6978;-74
2023/04/09 04:11:55;;;;;;;;;;;;;;;10.85;58.75;101343.28;4958553;28;6948;-71
2023/04/09 04:14:20;;;;;;;;;;;;;;;10.89;58.17;101352.06;4956632;28;7299;-72
2023/04/09 04:16:46;;;;;;;;;;;;;;;10.89;58.54;101344.38;4983108;28;6856;-72
2023/04/09 04:19:11;;;;;;;;;;;;;;;10.84;58.27;101350.06;4958035;28;6848;-73
2023/04/09 04:21:37;;;;;;;;;;;;;;;10.80;58.08;101347.22;4967202;28;7135;-72
2023/04/09 04:24:03;;;;;;;;;;;;;;;10.74;57.96;101352.00;4965202;28;6829;-72
2023/04/09 04:26:29;;;;;;;;;;;;;;;10.67;57.55;101346.47;4980979;28;7055;-73
2023/04/09 04:28:54;;;;;;;;;;;;;;;10.60;57.61;101346.88;4965833;28;6958;-73
2023/04/09 04:31:20;;;;;;;;;;;;;;;10.53;57.40;101342.16;4947165;28;7869;-74
2023/04/09 04:33:46;;;;;;;;;;;;;;;10.45;57.36;101348.47;4964553;28;6769;-73
2023/04/09 04:36:13;;;;;;;;;;;;;;;10.37;57.24;101345.38;4965816;28;6973;-73
2023/04/09 04:38:42;;;;;;;;;;;;;;;10.31;58.18;101347.56;4964250;28;6796;-72
2023/04/09 04:41:10;;;;;;;;;;;;;;;10.23;58.06;101354.72;4958935;28;7395;-72
2023/04/09 04:43:35;;;;;;;;;;;;;;;10.16;57.53;101353.44;4965659;28;6974;-73
2023/04/09 04:46:01;;;;;;;;;;;;;;;10.11;58.11;101358.28;4979445;28;7378;-74
2023/04/09 04:48:28;;;;;;;;;;;;;;;10.05;57.55;101357.91;4954823;28;6959;-72
2023/04/09 04:50:58;;;;;;;;;;;;;;;10.02;58.28;101354.25;4965175;28;6857;-72
2023/04/09 04:53:24;;;;;;;;;;;;;;;9.96;57.79;101352.16;4980832;28;6996;-72
2023/04/09 04:55:50;;;;;;;;;;;;;;;9.93;58.33;101357.06;4978983;28;6946;-73
2023/04/09 04:58:16;;;;;;;;;;;;;;;9.92;58.75;101360.41;4965641;28;6772;-72
2023/04/09 05:00:42;;;;;;;;;;;;;;;9.89;58.17;101362.78;4948533;28;7333;-75
2023/04/09 05:03:07;;;;;;;;;;;;;;;9.85;58.28;101354.91;4966038;28;6914;-72
2023/04/09 05:05:33;;;;;;;;;;;;;;;9.84;58.77;101363.34;4964457;28;6943;-73
2023/04/09 05:07:59;;;;;;;;;;;;;;;9.83;59.24;101364.13;4966471;28;7260;-72
2023/04/09 05:10:25;;;;;;;;;;;;;;;9.83;59.07;101358.16;4978877;28;6923;-72
2023/04/09 05:12:50;;;;;;;;;;;;;;;9.84;59.44;101360.78;4980396;28;6784;-74
2023/04/09 05:15:16;;;;;;;;;;;;;;;9.83;59.35;101355.59;4980250;28;7116;-72
2023/04/09 05:17:43;;;;;;;;;;;;;;;9.85;59.37;101357.47;4972981;28;7356;-73
2023/04/09 05:20:10;;;;;;;;;;;;;;;9.86;59.28;101360.91;4959155;28;7199;-72
2023/04/09 05:22:36;;;;;;;;;;;;;;;9.86;58.90;101359.25;4964447;28;6792;-71
2023/04/09 05:25:03;;;;;;;;;;;;;;;9.90;59.26;101351.75;4963265;28;7344;-72
2023/04/09 05:27:30;;;;;;;;;;;;;;;9.91;59.57;101350.97;4976851;28;7135;-71
2023/04/09 05:29:55;;;;;;;;;;;;;;;9.94;59.21;101352.06;4948160;28;7904;-73
2023/04/09 05:32:22;;;;;;;;;;;;;;;9.96;59.57;101339.38;4963511;28;7205;-73
2023/04/09 05:34:47;;;;;;;;;;;;;;;9.98;59.82;101342.91;4965587;28;6792;-73
2023/04/09 05:37:13;;;;;;;;;;;;;;;10.02;60.09;101346.56;4965984;28;6780;-74
2023/04/09 05:39:38;;;;;;;;;;;;;;;10.03;59.21;101344.06;4958621;28;6776;-72
2023/04/09 05:42:04;;;;;;;;;;;;;;;10.06;60.10;101339.16;4966546;28;6768;-72
2023/04/09 05:44:30;;;;;;;;;;;;;;;10.11;59.32;101342.91;4963718;28;7944;-73
2023/04/09 05:46:56;;;;;;;;;;;;;;;10.15;60.00;101344.00;4966125;28;6825;-73
2023/04/09 05:49:21;;;;;;;;;;;;;;;10.20;59.57;101346.84;4963861;28;6991;-74
2023/04/09 05:51:48;;;;;;;;;;;;;;;10.25;59.68;101345.50;4979781;28;6768;-72
2023/04/09 05:54:14;;;;;;;;;;;;;;;10.31;59.83;101345.88;4983407;28;7019;-72
2023/04/09 05:56:41;;;;;;;;;;;;;;;10.33;59.89;101344.28;4983983;28;6852;-72
2023/04/09 05:59:07;;;;;;;;;;;;;;;10.38;60.23;101353.16;4969414;28;6860;-73
2023/04/09 06:01:32;;;;;;;;;;;;;;;10.42;60.11;101346.59;4967255;28;6890;-71
2023/04/09 06:03:58;;;;;;;;;;;;;;;10.47;60.01;101344.31;4968141;28;7192;-72
2023/04/09 06:06:24;;;;;;;;;;;;;;;10.53;60.48;101347.28;4965745;28;8499;-73
2023/04/09 06:08:49;;;;;;;;;;;;;;;10.59;60.36;101352.78;4983006;28;6767;-73
2023/04/09 06:11:15;;;;;;;;;;;;;;;10.65;60.15;101350.63;4967421;28;6813;-72
2023/04/09 06:13:41;;;;;;;;;;;;;;;10.70;60.02;101351.78;4966522;28;7028;-72
2023/04/09 06:16:07;;;;;;;;;;;;;;;10.74;59.88;101357.13;4983491;28;6768;-75
2023/04/09 06:18:34;;;;;;;;;;;;;;;10.77;59.99;101352.16;4968234;28;6772;-73
2023/04/09 06:21:07;;;;;;;;;;;;;;;10.83;60.36;101360.25;4984670;28;6784;-75
2023/04/09 06:23:35;;;;;;;;;;;;;;;10.91;60.15;101356.50;4983493;28;6803;-73
2023/04/09 06:26:01;;;;;;;;;;;;;;;11.00;60.32;101356.16;4958476;28;9162;-73
2023/04/09 06:28:31;;;;;;;;;;;;;;;11.13;60.45;101362.03;4982766;28;6780;-74
2023/04/09 06:30:57;;;;;;;;;;;;;;;11.27;60.56;101360.31;4943531;28;7186;-72
2023/04/09 06:33:24;;;;;;;;;;;;;;;11.42;60.16;101365.47;4958743;28;6978;-72
2023/04/09 06:35:49;;;;;;;;;;;;;;;11.57;60.47;101362.94;4956682;28;7246;-73
2023/04/09 06:38:16;;;;;;;;;;;;;;;11.72;60.07;101361.28;4968463;28;6960;-75
2023/04/09 06:40:41;;;;;;;;;;;;;;;11.86;60.36;101363.75;4966351;28;6788;-73
2023/04/09 06:43:08;;;;;;;;;;;;;;;11.97;59.94;101361.84;4966988;28;8690;-73
2023/04/09 06:45:36;;;;;;;;;;;;;;;12.06;60.09;101360.69;4967531;28;6980;-73
2023/04/09 06:48:02;;;;;;;;;;;;;;;12.15;59.83;101370.63;4964548;28;6804;-73
2023/04/09 06:50:28;;;;;;;;;;;;;;;12.25;59.92;101368.59;4947745;28;6957;-75
2023/04/09 06:52:54;;;;;;;;;;;;;;;12.33;59.17;101372.47;4957969;28;7476;-73
2023/04/09 06:55:20;;;;;;;;;;;;;;;12.38;59.89;101373.59;4982075;28;7067;-74
2023/04/09 06:57:46;;;;;;;;;;;;;;;12.45;58.91;101374.81;4967703;28;6784;-73
2023/04/09 07:00:12;;;;;;;;;;;;;;;12.48;59.10;101364.75;4980237;28;6783;-73
2023/04/09 07:02:38;;;;;;;;;;;;;;;12.56;59.11;101375.44;4966566;28;6792;-73
2023/04/09 07:05:04;;;;;;;;;;;;;;;12.63;58.82;101377.56;4958404;28;7314;-74
2023/04/09 07:07:30;;;;;;;;;;;;;;;12.71;59.39;101380.53;4994708;28;6784;-72
2023/04/09 07:09:56;;;;;;;;;;;;;;;12.75;58.69;101372.22;4964798;28;6825;-72
2023/04/09 07:12:29;;;;;;;;;;;;;;;12.82;59.45;101373.41;4980471;28;6760;-73
2023/04/09 07:14:59;;;;;;;;;;;;;;;12.86;58.32;101378.81;4967006;28;6987;-72
2023/04/09 07:17:25;;;;;;;;;;;;;;;12.90;58.62;101375.59;4982286;28;6792;-72
2023/04/09 07:19:50;;;;;;;;;;;;;;;12.96;58.26;101376.75;4967822;28;6802;-73
2023/04/09 07:22:25;;;;;;;;;;;;;;;13.01;59.02;101373.59;4965437;28;6852;-75
2023/04/09 07:24:54;;;;;;;;;;;;;;;13.09;58.18;101378.28;4966674;28;7308;-72
2023/04/09 07:27:28;;;;;;;;;;;;;;;13.14;58.46;101380.31;4981328;28;6800;-73
2023/04/09 07:29:56;;;;;;;;;;;;;;;13.24;58.42;101383.38;4965299;28;6816;-73
2023/04/09 07:32:23;;;;;;;;;;;;;;;13.28;57.65;101388.75;4971522;28;7005;-73
2023/04/09 07:34:53;;;;;;;;;;;;;;;13.34;58.43;101385.63;4947013;28;7011;-74
2023/04/09 07:37:19;;;;;;;;;;;;;;;13.41;58.27;101387.69;4957711;28;7053;-73
2023/04/09 07:39:46;;;;;;;;;;;;;;;13.50;57.56;101391.56;4965606;28;6988;-71
2023/04/09 07:42:12;;;;;;;;;;;;;;;13.60;57.77;101384.41;4966216;28;7261;-72
2023/04/09 07:44:38;;;;;;;;;;;;;;;13.68;57.60;101392.53;4964502;28;6796;-74
2023/04/09 07:47:06;;;;;;;;;;;;;;;13.77;57.22;101391.22;4982511;28;6811;-72
2023/04/09 07:49:32;;;;;;;;;;;;;;;13.84;57.71;101383.88;4979292;28;6943;-73
2023/04/09 07:51:59;;;;;;;;;;;;;;;13.94;56.80;101394.66;4949073;28;6813;-73
2023/04/09 07:54:24;;;;;;;;;;;;;;;14.01;56.41;101389.00;4977442;28;6983;-73
2023/04/09 07:56:51;;;;;;;;;;;;;;;14.09;57.32;101390.28;4979569;28;6771;-75
2023/04/09 07:59:17;;;;;;;;;;;;;;;14.18;57.00;101384.66;4976215;28;6825;-74
2023/04/09 08:01:43;;;;;;;;;;;;;;;14.30;56.73;101390.44;4952287;28;7149;-75
2023/04/09 08:04:11;;;;;;;;;;;;;;;14.41;56.34;101393.53;4962854;28;6792;-74
2023/04/09 08:06:37;;;;;;;;;;;;;;;14.52;56.23;101394.06;4963498;28;6800;-72
2023/04/09 08:09:03;;;;;;;;;;;;;;;14.63;56.67;101388.50;4960417;28;6768;-72
2023/04/09 08:11:29;;;;;;;;;;;;;;;14.71;55.99;101389.75;4962091;28;7017;-73
2023/04/09 08:13:55;;;;;;;;;;;;;;;14.78;55.32;101394.44;4945612;28;6960;-73
2023/04/09 08:16:23;;;;;;;;;;;;;;;14.87;54.91;101383.66;4964556;28;6856;-72
2023/04/09 08:18:52;;;;;;;;;;;;;;;14.95;54.41;101386.56;4963188;28;6835;-74
2023/04/09 08:21:18;;;;;;;;;;;;;;;15.02;54.98;101388.63;4963635;28;7014;-73
2023/04/09 08:23:44;;;;;;;;;;;;;;;15.08;54.42;101383.75;4958909;28;7135;-75
2023/04/09 08:26:09;;;;;;;;;;;;;;;15.17;53.94;101385.84;4950166;28;6967;-73
2023/04/09 08:28:36;;;;;;;;;;;;;;;15.25;53.93;101383.59;4960866;28;7274;-72
2023/04/09 08:31:01;;;;;;;;;;;;;;;15.34;54.00;101389.19;4962200;28;6892;-73
2023/04/09 08:33:27;;;;;;;;;;;;;;;15.46;53.49;101385.38;4962150;28;6966;-74
2023/04/09 08:35:53;;;;;;;;;;;;;;;15.57;53.83;101378.09;4962472;28;7198;-74
2023/04/09 08:38:19;;;;;;;;;;;;;;;15.68;53.34;101382.91;4976956;28;6847;-71
2023/04/09 08:40:45;;;;;;;;;;;;;;;15.79;53.16;101374.72;4963249;28;6963;-75
2023/04/09 08:43:15;;;;;;;;;;;;;;;15.91;53.44;101374.41;4963644;28;6986;-72
2023/04/09 08:45:41;;;;;;;;;;;;;;;15.99;52.38;101370.44;4958413;28;6875;-72
2023/04/09 08:48:13;;;;;;;;;;;;;;;16.09;52.19;101384.59;4962545;28;7470;-73
2023/04/09 08:50:39;;;;;;;;;;;;;;;16.14;51.98;101377.94;4973608;28;6838;-72
2023/04/09 08:53:09;;;;;;;;;;;;;;;16.20;52.10;101367.81;4970718;28;7135;-72
2023/04/09 08:55:36;;;;;;;;;;;;;;;16.29;51.65;101369.00;4961955;28;6812;-72
2023/04/09 08:58:12;;;;;;;;;;;;;;;16.41;51.63;101361.72;4979000;28;6868;-72
2023/04/09 09:00:37;;;;;;;;;;;;;;;16.56;51.49;101369.19;4964670;28;7225;-74
2023/04/09 09:03:10;;;;;;;;;;;;;;;16.70;51.02;101364.56;4958450;28;7554;-73
2023/04/09 09:05:42;;;;;;;;;;;;;;;16.81;50.56;101357.22;4982022;28;6796;-72
2023/04/09 09:08:13;;;;;;;;;;;;;;;16.92;49.79;101365.41;4941911;28;7047;-73
2023/04/09 09:10:44;;;;;;;;;;;;;;;17.04;49.40;101364.97;4980571;28;6800;-73
2023/04/09 09:13:23;;;;;;;;;;;;;;;17.16;49.56;101354.19;4949621;28;7149;-72
2023/04/09 09:15:54;;;;;;;;;;;;;;;17.26;49.19;101350.22;4956126;28;7095;-71
2023/04/09 09:18:40;;;;;;;;;;;;;;;17.33;48.30;101358.28;4957845;28;6867;-72
2023/04/09 09:21:11;;;;;;;;;;;;;;;17.40;48.03;101345.53;4962800;28;6824;-72
2023/04/09 09:23:37;;;;;;;;;;;;;;;17.48;47.20;101346.69;4966870;28;7261;-72
2023/04/09 09:26:26;;;;;;;;;;;;;;;17.54;46.44;101346.03;4982227;28;6804;-72
2023/04/09 09:28:52;;;;;;;;;;;;;;;17.57;46.07;101346.97;4967952;28;7349;-72
2023/04/09 09:31:20;;;;;;;;;;;;;;;17.62;45.96;101347.13;4983109;28;7592;-72
2023/04/09 09:33:49;;;;;;;;;;;;;;;17.72;45.28;101341.47;4982618;28;6800;-76
2023/04/09 09:36:15;;;;;;;;;;;;;;;17.79;44.67;101342.53;4966836;28;6816;-73
2023/04/09 09:38:55;;;;;;;;;;;;;;;17.90;44.00;101346.38;4968443;28;6923;-75
2023/04/09 09:41:21;;;;;;;;;;;;;;;18.00;44.50;101336.31;4954307;28;7013;-72
2023/04/09 09:43:47;;;;;;;;;;;;;;;18.13;43.90;101342.78;4967685;28;6801;-73
2023/04/09 09:46:14;;;;;;;;;;;;;;;18.30;43.91;101343.31;4967866;28;7131;-72
2023/04/09 09:48:41;;;;;;;;;;;;;;;18.54;43.46;101340.59;4962522;28;6784;-72
2023/04/09 09:51:12;;;;;;;;;;;;;;;18.90;42.50;101340.75;4967465;28;6931;-72
2023/04/09 09:53:42;;;;;;;;;;;;;;;19.42;41.44;101338.75;4983511;28;7003;-74
2023/04/09 09:56:17;;;;;;;;;;;;;;;20.30;40.51;101337.44;4952115;28;6974;-76
2023/04/09 09:58:55;;;;;;;;;;;;;;;21.39;39.51;101337.06;4968310;28;6816;-72
2023/04/09 10:01:25;;;;;;;;;;;;;;;22.38;37.91;101329.97;4942326;28;7265;-72
2023/04/09 10:03:52;;;;;;;;;;;;;;;23.24;36.78;101324.03;4983617;28;7127;-72
2023/04/09 10:06:18;;;;;;;;;;;;;;;24.03;36.01;101320.34;4964319;28;6864;-73
2023/04/09 10:08:47;;;;;;;;;;;;;;;24.80;34.61;101320.78;4960693;28;7156;-72
2023/04/09 10:11:13;;;;;;;;;;;;;;;25.52;33.12;101310.47;4982588;28;6826;-72
2023/04/09 10:13:47;;;;;;;;;;;;;;;26.04;32.21;101319.16;4967072;28;6768;-75
2023/04/09 10:16:14;;;;;;;;;;;;;;;26.54;31.24;101300.66;4982723;28;7145;-73
2023/04/09 10:18:41;;;;;;;;;;;;;;;27.03;30.79;101302.19;4967251;28;6808;-72
2023/04/09 10:21:30;;;;;;;;;;;;;;;27.28;30.06;101296.75;4981741;28;7187;-74
2023/04/09 10:23:56;;;;;;;;;;;;;;;27.41;29.66;101301.03;4968338;28;7071;-72
2023/04/09 10:26:29;;;;;;;;;;;;;;;27.67;29.59;101299.97;4966979;28;7048;-73
2023/04/09 10:29:28;;;;;;;;;;;;;;;27.97;27.89;101302.31;4964871;28;7304;-74
2023/04/09 10:32:04;;;;;;;;;;;;;;;27.95;27.85;101306.72;4951604;28;6948;-72
2023/04/09 10:34:39;;;;;;;;;;;;;;;27.88;27.93;101295.38;4965701;28;6951;-75
2023/04/09 10:37:08;;;;;;;;;;;;;;;28.10;27.91;101293.41;4982722;28;7162;-72
2023/04/09 10:39:42;;;;;;;;;;;;;;;28.49;27.92;101299.97;4966289;28;6800;-73
2023/04/09 10:42:16;;;;;;;;;;;;;;;28.86;26.73;101294.25;4962174;28;6974;-74
2023/04/09 10:44:42;;;;;;;;;;;;;;;29.07;26.69;101290.44;4959460;28;6804;-74
2023/04/09 10:47:10;;;;;;;;;;;;;;;29.21;25.55;101279.66;4959741;28;7019;-73
2023/04/09 10:49:41;;;;;;;;;;;;;;;29.27;26.25;101285.75;4965213;28;7459;-73
2023/04/09 10:52:09;;;;;;;;;;;;;;;29.39;26.11;101269.69;4972951;28;6795;-74
2023/04/09 10:54:38;;;;;;;;;;;;;;;29.73;25.91;101273.53;4965612;28;6999;-74
2023/04/09 10:57:06;;;;;;;;;;;;;;;30.02;25.35;101269.47;4983314;28;7214;-74
2023/04/09 10:59:33;;;;;;;;;;;;;;;30.14;25.11;101276.31;4981103;28;6850;-75
2023/04/09 11:01:58;;;;;;;;;;;;;;;30.28;25.17;101268.97;4964539;28;6800;-73
2023/04/09 11:04:38;;;;;;;;;;;;;;;30.25;23.70;101269.03;4982256;28;7095;-77
2023/04/09 11:07:05;;;;;;;;;;;;;;;30.05;23.78;101272.06;4966063;28;6973;-76
2023/04/09 11:09:35;;;;;;;;;;;;;;;29.86;23.46;101271.53;4966191;28;7229;-74
2023/04/09 11:12:02;;;;;;;;;;;;;;;29.50;24.01;101264.22;4957756;28;7207;-74
2023/04/09 11:14:28;;;;;;;;;;;;;;;29.35;23.86;101255.66;4966380;28;7365;-74
2023/04/09 11:16:54;;;;;;;;;;;;;;;29.49;24.21;101263.38;4981813;28;6776;-72
2023/04/09 11:19:20;;;;;;;;;;;;;;;29.75;24.39;101259.41;4956956;28;6796;-72
2023/04/09 11:21:47;;;;;;;;;;;;;;;29.94;23.33;101259.06;4960205;28;7012;-76
2023/04/09 11:24:13;;;;;;;;;;;;;;;30.19;23.97;101251.53;4968061;28;6776;-77
2023/04/09 11:26:39;;;;;;;;;;;;;;;30.53;23.37;101246.41;4981585;28;6780;-73
2023/04/09 11:29:08;;;;;;;;;;;;;;;30.76;22.80;101243.25;4956785;28;6760;-71
2023/04/09 11:31:34;;;;;;;;;;;;;;;30.89;22.89;101236.75;4948022;28;6996;-72
2023/04/09 11:34:01;;;;;;;;;;;;;;;31.00;22.16;101225.94;4974464;28;6784;-71
2023/04/09 11:36:27;;;;;;;;;;;;;;;30.87;22.37;101233.28;4963645;28;6987;-71
2023/04/09 11:38:54;;;;;;;;;;;;;;;30.74;22.01;101234.50;4958320;28;6956;-73
2023/04/09 11:41:37;;;;;;;;;;;;;;;30.74;22.01;101231.84;4965292;28;7172;-73
2023/04/09 11:44:04;;;;;;;;;;;;;;;30.74;22.37;101234.50;4981617;28;6964;-72
2023/04/09 11:46:31;;;;;;;;;;;;;;;30.71;21.86;101226.63;4940270;28;6929;-71
2023/04/09 11:48:58;;;;;;;;;;;;;;;30.50;21.50;101231.47;4979162;28;6804;-70
2023/04/09 11:51:26;;;;;;;;;;;;;;;30.29;21.36;101228.41;4963466;28;7154;-74
2023/04/09 11:53:52;;;;;;;;;;;;;;;30.38;21.95;101231.75;4965380;28;6868;-73
2023/04/09 11:56:18;;;;;;;;;;;;;;;30.53;21.85;101222.59;4963605;28;6808;-72
2023/04/09 11:58:48;;;;;;;;;;;;;;;30.43;21.82;101224.59;4973987;28;6946;-74
2023/04/09 12:01:14;;;;;;;;;;;;;;;30.13;21.13;101227.84;4965940;28;6950;-71
2023/04/09 12:03:40;;;;;;;;;;;;;;;29.61;21.20;101229.72;4949289;28;6983;-71
2023/04/09 12:06:08;;;;;;;;;;;;;;;29.14;21.66;101229.66;4980790;28;6843;-71
2023/04/09 12:08:35;;;;;;;;;;;;;;;28.75;22.26;101227.56;4960857;28;6804;-71
2023/04/09 12:11:15;;;;;;;;;;;;;;;28.73;22.51;101235.53;4958320;28;7007;-72
2023/04/09 12:13:43;;;;;;;;;;;;;;;29.05;22.45;101226.25;4965035;28;7487;-72
2023/04/09 12:16:10;;;;;;;;;;;;;;;29.23;22.43;101230.34;4964552;28;6967;-72
2023/04/09 12:18:37;;;;;;;;;;;;;;;29.01;22.02;101231.59;4980293;28;6780;-71
2023/04/09 12:21:03;;;;;;;;;;;;;;;28.85;22.49;101230.97;4963196;28;6784;-73
2023/04/09 12:23:32;;;;;;;;;;;;;;;28.72;22.50;101233.75;4980518;28;6772;-73
2023/04/09 12:26:01;;;;;;;;;;;;;;;28.68;22.67;101227.69;4974349;28;6862;-74
2023/04/09 12:28:27;;;;;;;;;;;;;;;28.74;22.04;101234.63;4958763;28;6792;-75
2023/04/09 12:30:53;;;;;;;;;;;;;;;28.82;21.99;101239.78;4951587;28;7960;-72
2023/04/09 12:33:20;;;;;;;;;;;;;;;28.94;22.41;101234.34;4955218;28;8452;-70
2023/04/09 12:35:49;;;;;;;;;;;;;;;28.99;21.74;101236.91;4958371;28;6951;-76
2023/04/09 12:38:14;;;;;;;;;;;;;;;29.02;21.60;101233.34;4963017;28;7023;-74
2023/04/09 12:40:40;;;;;;;;;;;;;;;29.04;21.58;101231.56;4978755;28;6772;-76
2023/04/09 12:43:06;;;;;;;;;;;;;;;28.95;22.00;101222.03;4945723;28;6961;-76
2023/04/09 12:45:31;;;;;;;;;;;;;;;28.90;22.09;101215.94;4971725;28;7019;-76
2023/04/09 12:47:58;;;;;;;;;;;;;;;28.72;21.80;101219.72;4981017;28;6889;-75
2023/04/09 12:50:24;;;;;;;;;;;;;;;27.97;22.39;101226.81;4957163;28;6963;-74
2023/04/09 12:52:49;;;;;;;;;;;;;;;27.77;23.08;101221.75;4964225;28;7307;-76